Teterboro Airport
KTEB : now visible

Airfield :











YOU CAN JOIN US ON...

 
LOGIN :

Register | Disclaimer

   EN    FR    IT 

 









Legend :    VFR   Marginal VFR   IFR   Intensive IFR   Very Intensive IFR
Visi :
Ceiling :
>= 8 km
>= 3000ft
5 to 8 km
1000 to 3000 ft
1500m to 5 km
500 to 1000 ft
800 to 1500m
200 to 500 ft
< 800m
< 200 ft
Symbols :   Thunderstorms  Fog  Heavy snow  Heavy precipitations  Wind > 20 kt






- Airport Elevation : 9 ft


KTEB - Teterboro

CURRENT METAR :
  • 122051Z 23006KT 10SM OVC034 19/11 A2987 RMK AO2 SLP114 T01940111 58002 $

EXPIRED METARs :
  • 121951Z 19009KT 140V210 10SM OVC037 19/11 A2988 RMK AO2 SLP116 T01940111 $
  • 121851Z VRB04KT 10SM BKN028 OVC039 19/14 A2988 RMK AO2 SLP117 T01940139 $
  • 121824Z 11005KT 10SM BKN026 BKN033 OVC044 19/13 A2987 RMK AO2 T01940133 $

TAF KTEB
Valid from the 12 at 19:00 until the 14 at 00:00 UTC


121903Z 1219/1324 16005KT P6SM SCT028 BKN040
TEMPO 1219/1220 BKN028
FM130100 VRB03KT P6SM SCT050 SCT250
FM131400 20005KT P6SM BKN050
FM131800 19008KT P6SM BKN050
KZNY FIR / North America



MET'MAP, your aeronautical weather chart ! - Copyright ORBIFLY December 2007 - Disclaimer

ORBIFLY MET'MAP TEAM :

Programming & Development : Alexandra Zaïnal
Concept & original design : Baudouin d'Aumeries
Assistance for programming : Marc-Olivier Méhu
Technical & hardware support : Manuel Goepfert

Contact : metmap@orbifly.com




SOURCES & CREDITS :

   NOAA       Earth
Advisory